createdAt,value
2023-03-05T00:03:04.738Z,9.48
2023-03-05T00:08:58.637Z,10.07
2023-03-05T00:14:53.933Z,8.20
2023-03-05T00:20:57.695Z,10.77
2023-03-05T00:26:45.843Z,10.70
2023-03-05T00:32:33.322Z,9.10
2023-03-05T00:38:20.293Z,8.07
2023-03-05T00:44:07.602Z,9.82
2023-03-05T00:49:57.341Z,8.27
2023-03-05T00:55:46.189Z,12.52
2023-03-05T01:01:33.093Z,5.95
2023-03-05T01:07:19.894Z,11.35
2023-03-05T01:13:06.957Z,11.82
2023-03-05T01:18:54.870Z,7.85
2023-03-05T01:24:41.763Z,6.70
2023-03-05T01:30:28.938Z,11.38
2023-03-05T01:36:17.023Z,12.40
2023-03-05T01:42:04.900Z,8.07
2023-03-05T01:47:51.940Z,7.43
2023-03-05T01:53:39.333Z,6.88
2023-03-05T01:59:27.285Z,12.20
2023-03-05T02:05:18.834Z,10.65
2023-03-05T02:11:06.088Z,3.20
2023-03-05T02:16:53.331Z,9.35
2023-03-05T02:22:40.211Z,12.27
2023-03-05T02:28:32.456Z,9.95
2023-03-05T02:40:06.776Z,11.60
2023-03-05T02:45:53.662Z,7.55
2023-03-05T02:51:41.321Z,12.05
2023-03-05T02:57:28.953Z,10.13
2023-03-05T03:03:16.073Z,15.77
2023-03-05T03:09:06.912Z,14.38
2023-03-05T03:14:53.831Z,6.05
2023-03-05T03:20:40.625Z,6.78
2023-03-05T03:26:27.617Z,11.00
2023-03-05T03:32:14.446Z,15.38
2023-03-05T03:38:01.206Z,12.93
2023-03-05T03:43:47.919Z,11.95
2023-03-05T03:49:34.651Z,11.30
2023-03-05T03:55:21.371Z,11.30
2023-03-05T04:01:08.214Z,10.15
2023-03-05T04:06:54.901Z,11.23
2023-03-05T04:12:43.656Z,8.68
2023-03-05T04:18:32.490Z,12.50
2023-03-05T04:24:19.446Z,10.25
2023-03-05T04:30:07.568Z,8.13
2023-03-05T04:35:54.441Z,11.30
2023-03-05T04:41:41.405Z,12.27
2023-03-05T04:47:28.316Z,11.93
2023-03-05T04:53:15.067Z,9.15
2023-03-05T04:59:01.940Z,10.38
2023-03-05T05:04:52.129Z,10.43
2023-03-05T05:10:40.218Z,15.75
2023-03-05T05:16:27.053Z,10.68
2023-03-05T05:22:13.905Z,9.07
2023-03-05T05:28:00.647Z,13.80
2023-03-05T05:33:49.695Z,10.88
2023-03-05T05:39:37.137Z,15.40
2023-03-05T05:45:24.230Z,14.48
2023-03-05T05:51:15.151Z,8.65
2023-03-05T05:57:02.093Z,13.10
2023-03-05T06:02:49.019Z,8.98
2023-03-05T06:08:35.851Z,8.98
2023-03-05T06:14:22.592Z,8.05
2023-03-05T06:20:10.047Z,8.20
2023-03-05T06:26:00.021Z,11.30
2023-03-05T06:31:47.040Z,9.32
2023-03-05T06:37:36.771Z,10.88
2023-03-05T06:43:23.774Z,13.45
2023-03-05T06:49:11.809Z,10.07
2023-03-05T06:54:58.547Z,11.38
2023-03-05T07:00:45.692Z,10.07
2023-03-05T07:06:34.864Z,10.75
2023-03-05T07:12:31.456Z,12.43
2023-03-05T07:18:18.390Z,11.00
2023-03-05T07:24:08.611Z,10.27
2023-03-05T07:29:55.447Z,10.25
2023-03-05T07:35:54.634Z,8.25
2023-03-05T07:41:52.798Z,16.40
2023-03-05T07:47:48.008Z,12.35
2023-03-05T07:53:35.101Z,12.43
2023-03-05T07:59:21.836Z,8.95
2023-03-05T08:05:08.843Z,13.52
2023-03-05T08:11:21.105Z,19.38
2023-03-05T08:22:55.595Z,18.15
2023-03-05T08:28:42.855Z,25.40
2023-03-05T08:34:29.982Z,13.50
2023-03-05T08:40:18.194Z,12.85
2023-03-05T08:46:06.504Z,16.50
2023-03-05T08:51:53.207Z,12.48
2023-03-05T08:57:40.063Z,18.90
2023-03-05T09:03:27.086Z,11.55
2023-03-05T09:09:19.764Z,12.35
2023-03-05T09:15:08.445Z,12.82
2023-03-05T09:20:55.554Z,23.67
2023-03-05T09:26:42.438Z,13.75
2023-03-05T09:32:29.884Z,14.50
2023-03-05T09:38:19.347Z,17.33
2023-03-05T09:44:33.002Z,16.85
2023-03-05T09:50:44.979Z,16.23
2023-03-05T09:56:38.148Z,18.40
2023-03-05T10:02:33.949Z,17.52
2023-03-05T10:08:24.997Z,20.80
2023-03-05T10:14:16.135Z,19.60
2023-03-05T10:20:31.030Z,14.60
2023-03-05T10:26:32.382Z,21.20
2023-03-05T10:32:30.486Z,21.55
2023-03-05T10:38:26.556Z,27.52
2023-03-05T10:44:40.711Z,20.65
2023-03-05T10:50:33.829Z,21.30
2023-03-05T10:56:23.954Z,19.98
2023-03-05T11:02:12.788Z,22.30
2023-03-05T11:07:59.675Z,24.20
2023-03-05T11:14:01.200Z,21.58
2023-03-05T11:19:48.100Z,27.98
2023-03-05T11:25:37.891Z,27.92
2023-03-05T11:31:34.714Z,22.35
2023-03-05T11:37:31.595Z,28.75
2023-03-05T11:43:22.611Z,23.15
2023-03-05T11:49:15.737Z,15.38
2023-03-05T11:55:33.135Z,20.05
2023-03-05T12:01:23.704Z,23.63
2023-03-05T12:07:15.806Z,24.00
2023-03-05T12:13:31.115Z,22.90
2023-03-05T12:19:42.794Z,15.85
2023-03-05T12:25:36.350Z,26.50
2023-03-05T12:31:39.601Z,18.17
2023-03-05T12:37:26.514Z,12.45
2023-03-05T12:43:33.836Z,12.65
2023-03-05T12:49:20.691Z,13.18
2023-03-05T12:55:33.618Z,16.15
2023-03-05T13:01:29.486Z,12.20
2023-03-05T13:07:18.224Z,15.82
2023-03-05T13:13:05.215Z,13.35
2023-03-05T13:18:54.351Z,11.07
2023-03-05T13:24:41.436Z,15.07
2023-03-05T13:30:29.153Z,15.35
2023-03-05T13:36:21.511Z,11.93
2023-03-05T13:42:31.173Z,10.65
2023-03-05T13:48:20.216Z,9.65
2023-03-05T13:54:10.932Z,17.70
2023-03-05T13:59:57.924Z,11.38
2023-03-05T14:05:45.542Z,18.33
2023-03-05T14:11:36.163Z,16.70
2023-03-05T14:17:38.435Z,10.40
2023-03-05T14:23:47.648Z,11.93
2023-03-05T14:29:36.015Z,16.02
2023-03-05T14:35:28.310Z,10.70
2023-03-05T14:41:33.993Z,14.07
2023-03-05T14:47:22.708Z,9.48
2023-03-05T14:53:22.020Z,13.38
2023-03-05T14:59:09.660Z,9.23
2023-03-05T15:04:56.770Z,9.82
2023-03-05T15:10:43.519Z,12.80
2023-03-05T15:16:32.142Z,9.68
2023-03-05T15:22:19.053Z,8.32
2023-03-05T15:28:06.072Z,11.63
2023-03-05T15:33:53.009Z,10.52
2023-03-05T15:39:39.749Z,9.57
2023-03-05T15:45:27.581Z,8.75
2023-03-05T15:51:14.401Z,10.30
2023-03-05T15:57:01.297Z,8.85
2023-03-05T16:02:48.140Z,12.55
2023-03-05T16:08:36.885Z,10.13
2023-03-05T16:14:26.658Z,6.57
2023-03-05T16:20:14.502Z,9.93
2023-03-05T16:26:01.414Z,8.13
2023-03-05T16:31:48.325Z,9.88
2023-03-05T16:37:35.609Z,10.43
2023-03-05T16:43:23.812Z,7.78
2023-03-05T16:49:11.581Z,9.05
2023-03-05T16:54:58.473Z,3.20
2023-03-05T17:00:45.707Z,9.23
2023-03-05T17:06:33.604Z,6.43
2023-03-05T17:12:22.557Z,3.42
2023-03-05T17:18:10.115Z,4.32
2023-03-05T17:23:57.143Z,8.90
2023-03-05T17:29:44.051Z,12.27
2023-03-05T17:35:31.189Z,15.38
2023-03-05T17:41:19.758Z,16.98
2023-03-05T17:47:07.012Z,4.60
2023-03-05T17:52:54.072Z,5.18
2023-03-05T17:58:42.435Z,5.78
2023-03-05T18:04:33.991Z,7.68
2023-03-05T18:10:26.530Z,5.57
2023-03-05T18:16:17.069Z,4.97
2023-03-05T18:22:04.481Z,5.00
2023-03-05T18:27:52.949Z,9.23
2023-03-05T18:33:39.870Z,6.40
2023-03-05T18:39:29.327Z,3.83
2023-03-05T18:45:18.852Z,10.55
2023-03-05T18:51:17.534Z,7.88
2023-03-05T18:57:26.270Z,8.82
2023-03-05T19:03:14.643Z,13.23
2023-03-05T19:09:13.123Z,13.40
2023-03-05T19:15:18.622Z,23.95
2023-03-05T19:21:10.219Z,12.52
2023-03-05T19:33:17.251Z,11.05
2023-03-05T19:53:01.829Z,12.95
2023-03-05T19:58:51.502Z,7.53
2023-03-05T20:04:42.654Z,5.70
2023-03-05T20:10:34.713Z,7.32
2023-03-05T20:16:33.888Z,10.23
2023-03-05T20:22:21.240Z,12.43
2023-03-05T20:28:10.419Z,13.70
2023-03-05T20:34:02.501Z,8.57
2023-03-05T20:39:51.063Z,14.50
2023-03-05T20:45:40.343Z,9.25
2023-03-05T20:51:36.344Z,18.02
2023-03-05T20:57:23.068Z,20.33
2023-03-05T21:03:10.333Z,7.82
2023-03-05T21:08:58.957Z,10.05
2023-03-05T21:14:45.875Z,11.45
2023-03-05T21:27:43.385Z,12.50
2023-03-05T21:33:30.548Z,8.95
2023-03-05T21:39:17.283Z,8.77
2023-03-05T21:45:05.567Z,11.52
2023-03-05T21:50:55.559Z,14.30
2023-03-05T21:56:42.988Z,7.82
2023-03-05T22:02:29.786Z,7.60
2023-03-05T22:08:16.794Z,11.48
2023-03-05T22:14:03.598Z,7.93
2023-03-05T22:19:50.384Z,17.88
2023-03-05T22:25:38.279Z,15.25
2023-03-05T22:31:30.469Z,10.25
2023-03-05T22:43:04.924Z,11.07
2023-03-05T22:48:54.901Z,7.10
2023-03-05T22:54:56.800Z,10.45
2023-03-05T23:01:15.217Z,5.93
2023-03-05T23:07:58.150Z,7.57
2023-03-05T23:13:45.129Z,10.40
2023-03-05T23:19:39.725Z,7.55
2023-03-05T23:26:38.918Z,8.77
2023-03-05T23:32:39.745Z,15.40
2023-03-05T23:39:42.385Z,9.70
2023-03-05T23:45:30.676Z,11.52
2023-03-05T23:51:54.956Z,6.65
2023-03-05T23:57:45.637Z,10.32
